createdAt,value
2023-03-26T00:00:02.498Z,15.52
2023-03-26T00:02:06.603Z,16.30
2023-03-26T00:04:09.510Z,15.20
2023-03-26T00:06:14.320Z,15.95
2023-03-26T00:08:17.878Z,16.63
2023-03-26T00:10:20.876Z,16.13
2023-03-26T00:12:23.547Z,16.65
2023-03-26T00:14:27.115Z,17.33
2023-03-26T00:16:32.237Z,17.05
2023-03-26T00:18:35.192Z,17.25
2023-03-26T00:20:38.622Z,17.80
2023-03-26T00:22:41.813Z,17.70
2023-03-26T00:24:46.187Z,17.85
2023-03-26T00:26:53.562Z,17.92
2023-03-26T00:28:56.348Z,16.33
2023-03-26T00:31:04.427Z,17.80
2023-03-26T00:33:08.104Z,18.13
2023-03-26T00:35:11.248Z,17.42
2023-03-26T00:37:15.229Z,18.70
2023-03-26T00:39:18.088Z,18.13
2023-03-26T00:41:31.271Z,18.52
2023-03-26T00:43:36.141Z,19.55
2023-03-26T00:45:39.789Z,19.02
2023-03-26T00:47:43.789Z,17.65
2023-03-26T00:49:46.958Z,18.58
2023-03-26T00:51:49.594Z,16.80
2023-03-26T00:53:52.302Z,17.08
2023-03-26T00:56:00.543Z,17.58
2023-03-26T00:58:03.333Z,16.75
2023-03-26T01:00:14.785Z,18.08
2023-03-26T01:02:21.037Z,18.77
2023-03-26T01:04:31.487Z,17.58
2023-03-26T01:06:37.980Z,18.23
2023-03-26T01:08:46.937Z,17.77
2023-03-26T01:10:53.573Z,16.92
2023-03-26T01:12:56.299Z,16.98
2023-03-26T01:15:01.517Z,17.85
2023-03-26T01:17:07.918Z,18.33
2023-03-26T01:19:21.380Z,19.27
2023-03-26T01:21:30.488Z,17.70
2023-03-26T01:23:49.198Z,16.98
2023-03-26T01:26:05.883Z,18.75
2023-03-26T01:28:12.757Z,17.33
2023-03-26T01:30:27.291Z,19.42
2023-03-26T01:32:35.047Z,17.05
2023-03-26T01:35:06.705Z,18.55
2023-03-26T01:37:52.707Z,18.15
2023-03-26T01:40:06.305Z,17.63
2023-03-26T01:42:18.355Z,18.33
2023-03-26T01:44:41.694Z,18.33
2023-03-26T01:46:45.776Z,17.33
2023-03-26T01:48:49.062Z,17.95
2023-03-26T01:50:56.519Z,17.08
2023-03-26T01:52:59.197Z,18.33
2023-03-26T01:55:03.175Z,17.70
2023-03-26T01:57:06.223Z,16.02
2023-03-26T01:59:40.811Z,16.35
2023-03-26T02:02:07.143Z,16.42
2023-03-26T02:04:44.971Z,17.48
2023-03-26T02:07:25.839Z,15.63
2023-03-26T02:09:35.173Z,17.05
2023-03-26T02:11:40.971Z,15.82
2023-03-26T02:13:46.073Z,16.40
2023-03-26T02:15:57.414Z,15.77
2023-03-26T02:18:02.156Z,16.40
2023-03-26T02:20:06.147Z,16.17
2023-03-26T02:22:16.038Z,15.45
2023-03-26T02:24:20.011Z,16.40
2023-03-26T02:26:22.586Z,16.35
2023-03-26T02:28:25.181Z,16.13
2023-03-26T02:30:29.899Z,15.13
2023-03-26T02:32:32.943Z,14.48
2023-03-26T02:34:36.937Z,14.25
2023-03-26T02:36:39.675Z,13.75
2023-03-26T02:38:42.425Z,13.98
2023-03-26T02:40:45.161Z,14.90
2023-03-26T02:42:48.309Z,14.90
2023-03-26T02:44:51.006Z,13.75
2023-03-26T02:46:54.034Z,14.77
2023-03-26T02:48:56.672Z,15.27
2023-03-26T02:50:59.274Z,14.90
2023-03-26T02:53:01.886Z,15.25
2023-03-26T02:55:04.753Z,14.23
2023-03-26T02:57:07.444Z,14.95
2023-03-26T02:59:11.040Z,14.07
2023-03-26T03:01:13.796Z,14.98
2023-03-26T03:03:17.506Z,13.55
2023-03-26T03:05:20.481Z,13.63
2023-03-26T03:07:24.637Z,14.43
2023-03-26T03:09:27.246Z,13.77
2023-03-26T03:11:29.791Z,14.20
2023-03-26T03:13:32.413Z,14.90
2023-03-26T03:15:35.898Z,14.07
2023-03-26T03:17:38.655Z,14.75
2023-03-26T03:19:41.272Z,14.30
2023-03-26T03:21:44.024Z,13.25
2023-03-26T03:23:46.753Z,14.25
2023-03-26T03:25:51.031Z,12.98
2023-03-26T03:27:54.166Z,14.68
2023-03-26T03:29:59.151Z,12.52
2023-03-26T03:32:02.422Z,14.63
2023-03-26T03:34:05.269Z,13.82
2023-03-26T03:36:20.482Z,14.25
2023-03-26T03:38:24.529Z,12.10
2023-03-26T03:40:27.343Z,14.43
2023-03-26T03:42:30.001Z,13.95
2023-03-26T03:44:32.533Z,13.85
2023-03-26T03:46:35.344Z,13.60
2023-03-26T03:48:41.237Z,13.05
2023-03-26T03:50:43.885Z,12.60
2023-03-26T03:52:46.613Z,13.18
2023-03-26T03:54:49.695Z,14.10
2023-03-26T03:56:52.446Z,13.18
2023-03-26T03:58:55.741Z,14.93
2023-03-26T04:01:04.489Z,13.80
2023-03-26T04:03:10.256Z,13.93
2023-03-26T04:05:13.019Z,16.00
2023-03-26T04:07:15.702Z,14.50
2023-03-26T04:09:18.763Z,13.65
2023-03-26T04:11:21.572Z,13.48
2023-03-26T04:13:24.344Z,14.00
2023-03-26T04:15:27.000Z,12.95
2023-03-26T04:17:30.741Z,14.00
2023-03-26T04:19:33.389Z,14.20
2023-03-26T04:21:38.213Z,13.55
2023-03-26T04:23:42.537Z,12.77
2023-03-26T04:25:50.296Z,15.55
2023-03-26T04:27:55.874Z,13.05
2023-03-26T04:30:01.801Z,12.15
2023-03-26T04:32:08.575Z,12.23
2023-03-26T04:34:24.508Z,12.88
2023-03-26T04:36:29.958Z,13.27
2023-03-26T04:38:42.302Z,12.68
2023-03-26T04:40:47.611Z,13.13
2023-03-26T04:42:50.407Z,13.10
2023-03-26T04:44:52.980Z,14.35
2023-03-26T04:46:56.017Z,13.75
2023-03-26T04:48:58.595Z,12.43
2023-03-26T04:51:01.802Z,13.48
2023-03-26T04:53:05.010Z,11.50
2023-03-26T04:55:30.061Z,11.65
2023-03-26T04:57:37.471Z,11.82
2023-03-26T04:59:41.484Z,11.93
2023-03-26T05:01:46.191Z,12.57
2023-03-26T05:03:48.854Z,12.30
2023-03-26T05:05:51.703Z,13.02
2023-03-26T05:07:54.718Z,11.45
2023-03-26T05:09:57.796Z,11.13
2023-03-26T05:12:00.487Z,11.05
2023-03-26T05:14:03.226Z,11.77
2023-03-26T05:16:06.119Z,11.48
2023-03-26T05:18:08.986Z,11.27
2023-03-26T05:20:21.077Z,10.65
2023-03-26T05:22:23.736Z,11.07
2023-03-26T05:24:27.376Z,10.15
2023-03-26T05:26:30.230Z,11.70
2023-03-26T05:28:33.029Z,10.25
2023-03-26T05:30:35.848Z,10.55
2023-03-26T05:32:38.588Z,12.02
2023-03-26T05:34:41.875Z,11.25
2023-03-26T05:36:44.567Z,10.82
2023-03-26T05:38:50.117Z,11.65
2023-03-26T05:40:58.193Z,11.95
2023-03-26T05:43:00.870Z,10.25
2023-03-26T05:45:03.540Z,9.73
2023-03-26T05:47:06.227Z,8.30
2023-03-26T05:49:08.823Z,9.45
2023-03-26T05:51:12.491Z,10.38
2023-03-26T05:53:15.879Z,10.80
2023-03-26T05:55:18.759Z,9.55
2023-03-26T05:57:22.628Z,9.60
2023-03-26T05:59:25.791Z,10.30
2023-03-26T06:01:29.560Z,10.65
2023-03-26T06:03:33.534Z,10.60
2023-03-26T06:05:37.568Z,10.13
2023-03-26T06:07:40.542Z,11.15
2023-03-26T06:09:43.877Z,10.63
2023-03-26T06:11:46.672Z,11.35
2023-03-26T06:13:49.369Z,10.13
2023-03-26T06:15:52.468Z,11.38
2023-03-26T06:17:55.279Z,10.57
2023-03-26T06:19:58.691Z,10.60
2023-03-26T06:22:01.588Z,11.10
2023-03-26T06:24:04.450Z,11.00
2023-03-26T06:26:07.184Z,10.63
2023-03-26T06:28:10.052Z,10.00
2023-03-26T06:30:13.171Z,10.98
2023-03-26T06:32:20.176Z,10.98
2023-03-26T06:34:23.392Z,9.63
2023-03-26T06:36:26.303Z,9.77
2023-03-26T06:38:28.940Z,9.52
2023-03-26T06:40:33.854Z,11.18
2023-03-26T06:43:10.162Z,11.13
2023-03-26T06:44:59.649Z,10.40
2023-03-26T06:47:02.408Z,10.00
2023-03-26T06:49:05.143Z,9.80
2023-03-26T06:51:08.806Z,9.70
2023-03-26T06:53:11.795Z,9.23
2023-03-26T06:55:14.473Z,9.07
2023-03-26T06:57:17.382Z,9.68
2023-03-26T06:59:20.101Z,9.35
2023-03-26T07:01:23.203Z,10.50
2023-03-26T07:03:26.146Z,11.30
2023-03-26T07:05:28.772Z,9.18
2023-03-26T07:07:31.874Z,9.93
2023-03-26T07:09:34.687Z,10.07
2023-03-26T07:11:37.348Z,11.50
2023-03-26T07:13:40.323Z,9.95
2023-03-26T07:15:43.002Z,10.45
2023-03-26T07:17:45.931Z,11.18
2023-03-26T07:19:49.419Z,11.32
2023-03-26T07:21:52.669Z,10.48
2023-03-26T07:23:56.891Z,10.23
2023-03-26T07:26:12.529Z,10.02
2023-03-26T07:29:05.094Z,11.13
2023-03-26T07:34:05.198Z,9.65
2023-03-26T07:36:22.676Z,10.50
2023-03-26T07:39:28.882Z,10.50
2023-03-26T07:41:59.615Z,9.35
2023-03-26T07:44:20.988Z,10.38
2023-03-26T07:46:35.085Z,11.33
2023-03-26T07:48:42.598Z,8.77
2023-03-26T07:50:45.837Z,10.93
2023-03-26T07:52:48.924Z,9.15
2023-03-26T07:54:52.041Z,9.65
2023-03-26T07:57:06.776Z,9.48
2023-03-26T07:59:21.643Z,10.38
2023-03-26T08:01:28.375Z,9.63
2023-03-26T08:04:23.272Z,9.80
2023-03-26T08:06:37.538Z,9.80
2023-03-26T08:08:53.397Z,10.60
2023-03-26T08:11:09.229Z,10.18
2023-03-26T08:13:30.854Z,9.02
2023-03-26T08:16:14.632Z,9.10
2023-03-26T08:18:33.085Z,8.75
2023-03-26T08:20:49.714Z,9.82
2023-03-26T08:23:05.858Z,10.13
2023-03-26T08:25:40.909Z,10.35
2023-03-26T08:27:52.745Z,8.82
2023-03-26T08:32:14.112Z,8.15
2023-03-26T08:34:17.384Z,10.00
2023-03-26T08:36:20.247Z,10.68
2023-03-26T08:38:23.262Z,9.55
2023-03-26T08:41:03.590Z,8.88
2023-03-26T08:44:00.035Z,9.23
2023-03-26T08:46:18.770Z,9.25
2023-03-26T08:48:45.953Z,8.90
2023-03-26T08:50:54.295Z,8.25
2023-03-26T08:53:15.747Z,8.07
2023-03-26T08:55:52.237Z,9.18
2023-03-26T08:58:31.944Z,7.68
2023-03-26T09:00:59.296Z,8.77
2023-03-26T09:03:19.027Z,9.23
2023-03-26T09:05:59.109Z,8.80
2023-03-26T09:08:32.169Z,8.82
2023-03-26T09:11:02.996Z,7.53
2023-03-26T09:13:28.546Z,8.68
2023-03-26T09:15:36.714Z,8.70
2023-03-26T09:17:42.213Z,9.23
2023-03-26T09:20:00.194Z,7.63
2023-03-26T09:22:17.862Z,8.38
2023-03-26T09:24:56.436Z,8.52
2023-03-26T09:27:12.482Z,6.70
2023-03-26T09:29:37.402Z,8.60
2023-03-26T09:32:06.985Z,6.75
2023-03-26T09:34:47.203Z,7.60
2023-03-26T09:37:28.961Z,7.28
2023-03-26T09:40:05.588Z,6.68
2023-03-26T09:42:42.171Z,7.53
2023-03-26T09:45:06.672Z,7.28
2023-03-26T09:47:28.177Z,7.03
2023-03-26T09:49:39.088Z,7.00
2023-03-26T09:51:53.796Z,5.80
2023-03-26T09:54:28.530Z,7.18
2023-03-26T09:56:43.162Z,6.63
2023-03-26T09:58:55.439Z,6.18
2023-03-26T10:01:18.597Z,6.32
2023-03-26T10:03:29.170Z,6.35
2023-03-26T10:05:43.786Z,5.82
2023-03-26T10:08:20.466Z,5.43
2023-03-26T10:10:50.184Z,5.40
2023-03-26T10:13:14.509Z,6.13
2023-03-26T10:15:51.514Z,5.85
2023-03-26T10:18:39.358Z,5.20
2023-03-26T10:21:08.744Z,5.93
2023-03-26T10:23:36.047Z,5.93
2023-03-26T10:25:41.406Z,5.95
2023-03-26T10:28:01.981Z,6.32
2023-03-26T10:30:10.548Z,6.72
2023-03-26T10:32:26.278Z,6.20
2023-03-26T10:34:51.915Z,6.18
2023-03-26T10:37:26.021Z,6.32
2023-03-26T10:39:50.647Z,5.65
2023-03-26T10:41:56.229Z,4.93
2023-03-26T10:44:15.962Z,5.05
2023-03-26T10:46:18.616Z,5.72
2023-03-26T10:48:30.902Z,5.50
2023-03-26T10:51:00.937Z,6.03
2023-03-26T10:53:23.797Z,5.75
2023-03-26T10:55:34.156Z,5.60
2023-03-26T10:57:46.186Z,5.25
2023-03-26T10:59:48.842Z,5.50
2023-03-26T11:01:51.552Z,5.93
2023-03-26T11:03:55.989Z,6.50
2023-03-26T11:06:01.485Z,6.93
2023-03-26T11:08:35.699Z,6.90
2023-03-26T11:11:03.127Z,6.03
2023-03-26T11:13:46.776Z,7.03
2023-03-26T11:16:13.509Z,6.40
2023-03-26T11:18:35.508Z,6.45
2023-03-26T11:20:53.488Z,6.65
2023-03-26T11:23:12.121Z,7.18
2023-03-26T11:25:26.814Z,8.90
2023-03-26T11:27:56.618Z,7.15
2023-03-26T11:30:42.053Z,6.80
2023-03-26T11:32:48.620Z,8.05
2023-03-26T11:34:58.530Z,7.43
2023-03-26T11:37:08.717Z,8.35
2023-03-26T11:39:16.810Z,8.07
2023-03-26T11:41:23.581Z,9.50
2023-03-26T11:43:34.583Z,9.43
2023-03-26T11:45:42.522Z,10.38
2023-03-26T11:47:53.185Z,9.70
2023-03-26T11:49:59.723Z,9.57
2023-03-26T11:52:03.832Z,10.20
2023-03-26T11:54:11.428Z,9.88
2023-03-26T11:56:23.516Z,9.80
2023-03-26T11:58:35.077Z,9.40
2023-03-26T12:02:41.639Z,10.70
2023-03-26T12:04:46.619Z,9.82
2023-03-26T12:06:54.150Z,9.07
2023-03-26T12:08:57.488Z,10.23
2023-03-26T12:11:07.200Z,8.73
2023-03-26T12:13:27.330Z,7.40
2023-03-26T12:15:34.126Z,8.02
2023-03-26T12:17:40.347Z,8.15
2023-03-26T12:19:45.762Z,9.02
2023-03-26T12:21:53.230Z,8.10
2023-03-26T12:24:05.454Z,8.05
2023-03-26T12:26:30.563Z,8.25
2023-03-26T12:28:33.329Z,8.52
2023-03-26T12:30:38.120Z,8.98
2023-03-26T12:32:46.742Z,8.02
2023-03-26T12:34:50.359Z,7.85
2023-03-26T12:37:00.233Z,7.57
2023-03-26T12:40:10.665Z,8.68
2023-03-26T12:44:44.118Z,8.23
2023-03-26T12:44:49.799Z,9.07
2023-03-26T12:48:00.459Z,8.82
2023-03-26T12:49:17.091Z,10.02
2023-03-26T12:51:19.860Z,9.30
2023-03-26T12:53:59.439Z,8.52
2023-03-26T12:56:36.509Z,7.64
2023-03-26T12:59:06.722Z,7.95
2023-03-26T13:01:27.186Z,8.30
2023-03-26T13:03:56.190Z,7.95
2023-03-26T13:06:06.920Z,8.02
2023-03-26T13:08:57.895Z,8.32
2023-03-26T13:11:06.373Z,8.15
2023-03-26T13:13:37.624Z,8.18
2023-03-26T13:15:53.103Z,9.40
2023-03-26T13:17:58.746Z,9.98
2023-03-26T13:20:12.385Z,9.75
2023-03-26T13:22:46.823Z,8.68
2023-03-26T13:24:59.958Z,9.43
2023-03-26T13:27:27.201Z,8.98
2023-03-26T13:29:38.615Z,8.60
2023-03-26T13:32:10.327Z,7.82
2023-03-26T13:34:38.291Z,8.13
2023-03-26T13:37:05.348Z,9.32
2023-03-26T13:39:36.912Z,8.52
2023-03-26T13:42:16.009Z,8.98
2023-03-26T13:44:45.024Z,8.40
2023-03-26T13:46:57.646Z,8.90
2023-03-26T13:49:13.949Z,9.40
2023-03-26T13:51:32.409Z,8.13
2023-03-26T13:53:44.098Z,8.15
2023-03-26T13:55:56.015Z,11.40
2023-03-26T14:00:29.252Z,8.98
2023-03-26T14:04:51.192Z,8.18
2023-03-26T14:07:04.123Z,8.93
2023-03-26T14:09:24.795Z,9.50
2023-03-26T14:11:36.732Z,9.05
2023-03-26T14:13:49.925Z,10.20
2023-03-26T14:15:58.247Z,8.88
2023-03-26T14:18:38.807Z,8.23
2023-03-26T14:20:47.979Z,8.85
2023-03-26T14:23:05.107Z,8.68
2023-03-26T14:26:08.787Z,9.25
2023-03-26T14:29:25.713Z,8.70
2023-03-26T14:31:35.957Z,9.45
2023-03-26T14:34:00.289Z,9.85
2023-03-26T14:36:28.054Z,9.38
2023-03-26T14:38:53.387Z,8.57
2023-03-26T14:41:40.071Z,9.30
2023-03-26T14:44:07.700Z,9.48
2023-03-26T14:46:38.070Z,8.88
2023-03-26T14:49:05.900Z,9.18
2023-03-26T14:51:56.610Z,8.60
2023-03-26T14:54:12.415Z,10.23
2023-03-26T14:56:33.740Z,8.60
2023-03-26T14:59:22.454Z,8.98
2023-03-26T15:02:07.359Z,9.02
2023-03-26T15:04:43.962Z,9.55
2023-03-26T15:07:23.989Z,9.02
2023-03-26T15:09:54.349Z,8.02
2023-03-26T15:12:12.820Z,8.50
2023-03-26T15:14:41.016Z,9.40
2023-03-26T15:17:04.742Z,8.25
2023-03-26T15:19:25.751Z,7.00
2023-03-26T15:21:31.420Z,8.67
2023-03-26T15:24:06.625Z,7.45
2023-03-26T15:26:10.054Z,7.70
2023-03-26T15:28:26.202Z,7.32
2023-03-26T15:30:48.780Z,7.72
2023-03-26T15:33:09.445Z,7.10
2023-03-26T15:35:32.310Z,6.95
2023-03-26T15:38:02.126Z,7.07
2023-03-26T15:40:26.737Z,6.75
2023-03-26T15:42:58.585Z,7.05
2023-03-26T15:45:08.068Z,6.65
2023-03-26T15:47:38.771Z,7.28
2023-03-26T15:50:09.584Z,6.22
2023-03-26T15:52:43.223Z,6.45
2023-03-26T15:54:53.583Z,7.05
2023-03-26T15:57:18.640Z,7.45
2023-03-26T15:59:31.148Z,5.72
2023-03-26T16:01:51.808Z,5.80
2023-03-26T16:04:17.645Z,6.00
2023-03-26T16:06:31.161Z,6.18
2023-03-26T16:08:38.895Z,6.20
2023-03-26T16:10:51.468Z,6.60
2023-03-26T16:13:12.883Z,6.63
2023-03-26T16:15:15.925Z,6.70
2023-03-26T16:17:23.446Z,6.82
2023-03-26T16:19:32.738Z,6.18
2023-03-26T16:21:56.263Z,6.35
2023-03-26T16:24:08.568Z,6.82
2023-03-26T16:26:35.656Z,5.60
2023-03-26T16:29:16.647Z,6.55
2023-03-26T16:31:37.302Z,6.40
2023-03-26T16:33:50.972Z,6.18
2023-03-26T16:36:31.259Z,6.38
2023-03-26T16:39:12.857Z,6.32
2023-03-26T16:41:23.728Z,5.80
2023-03-26T16:43:47.021Z,6.60
2023-03-26T16:45:52.445Z,5.15
2023-03-26T16:48:07.118Z,5.78
2023-03-26T16:50:18.982Z,5.95
2023-03-26T16:54:57.351Z,5.38
2023-03-26T16:57:26.288Z,5.38
2023-03-26T17:00:04.925Z,5.10
2023-03-26T17:02:32.991Z,4.80
2023-03-26T17:04:37.123Z,5.05
2023-03-26T17:06:54.016Z,5.55
2023-03-26T17:09:01.504Z,4.72
2023-03-26T17:11:09.532Z,5.43
2023-03-26T17:13:23.340Z,4.30
2023-03-26T17:15:51.611Z,4.93
2023-03-26T17:18:05.240Z,5.57
2023-03-26T17:20:33.897Z,4.95
2023-03-26T17:22:42.672Z,4.00
2023-03-26T17:24:58.967Z,4.28
2023-03-26T17:27:28.530Z,4.70
2023-03-26T17:29:33.813Z,4.43
2023-03-26T17:31:42.029Z,4.57
2023-03-26T17:33:44.972Z,3.97
2023-03-26T17:35:51.443Z,5.80
2023-03-26T17:37:54.291Z,3.30
2023-03-26T17:40:09.698Z,4.75
2023-03-26T17:42:33.002Z,4.32
2023-03-26T17:44:43.868Z,4.07
2023-03-26T17:46:49.642Z,3.90
2023-03-26T17:49:12.544Z,3.78
2023-03-26T17:51:27.371Z,4.35
2023-03-26T17:53:32.734Z,3.70
2023-03-26T17:55:39.003Z,4.28
2023-03-26T17:57:47.705Z,4.35
2023-03-26T17:59:56.291Z,4.07
2023-03-26T18:02:05.727Z,4.22
2023-03-26T18:04:34.701Z,3.55
2023-03-26T18:07:14.501Z,3.67
2023-03-26T18:09:44.734Z,3.83
2023-03-26T18:11:59.205Z,4.07
2023-03-26T18:14:19.891Z,3.75
2023-03-26T18:16:37.171Z,4.03
2023-03-26T18:19:00.039Z,4.30
2023-03-26T18:21:07.422Z,4.00
2023-03-26T18:23:26.852Z,3.78
2023-03-26T18:25:34.144Z,3.90
2023-03-26T18:27:40.797Z,3.80
2023-03-26T18:30:14.504Z,3.92
2023-03-26T18:32:22.390Z,3.80
2023-03-26T18:34:26.814Z,3.75
2023-03-26T18:36:31.332Z,2.97
2023-03-26T18:38:35.465Z,4.28
2023-03-26T18:40:43.569Z,4.35
2023-03-26T18:42:52.492Z,3.45
2023-03-26T18:44:59.438Z,3.83
2023-03-26T18:47:08.015Z,3.72
2023-03-26T18:49:17.390Z,4.97
2023-03-26T18:51:23.294Z,3.35
2023-03-26T18:53:34.667Z,3.20
2023-03-26T18:55:40.291Z,3.90
2023-03-26T18:57:43.561Z,4.03
2023-03-26T18:59:50.560Z,3.72
2023-03-26T19:01:53.294Z,3.53
2023-03-26T19:03:56.477Z,3.60
2023-03-26T19:05:59.778Z,3.45
2023-03-26T19:08:05.628Z,2.85
2023-03-26T19:10:18.747Z,3.88
2023-03-26T19:12:30.108Z,3.90
2023-03-26T19:14:37.057Z,4.20
2023-03-26T19:16:43.726Z,3.53
2023-03-26T19:18:47.300Z,3.63
2023-03-26T19:20:54.623Z,4.00
2023-03-26T19:22:58.226Z,3.90
2023-03-26T19:25:02.894Z,3.70
2023-03-26T19:27:05.974Z,3.20
2023-03-26T19:29:14.172Z,4.40
2023-03-26T19:31:32.500Z,4.38
2023-03-26T19:33:37.990Z,3.53
2023-03-26T19:35:42.991Z,3.85
2023-03-26T19:37:54.575Z,3.42
2023-03-26T19:40:19.083Z,4.20
2023-03-26T19:42:43.062Z,4.10
2023-03-26T19:44:48.461Z,3.83
2023-03-26T19:46:53.765Z,4.70
2023-03-26T19:48:57.780Z,4.50
2023-03-26T19:51:05.080Z,4.53
2023-03-26T19:53:22.629Z,3.45
2023-03-26T19:55:25.560Z,4.18
2023-03-26T19:57:32.482Z,3.85
2023-03-26T19:59:35.174Z,4.07
2023-03-26T20:01:37.986Z,4.93
2023-03-26T20:03:43.056Z,4.85
2023-03-26T20:05:45.763Z,3.80
2023-03-26T20:07:50.394Z,4.03
2023-03-26T20:09:54.541Z,4.18
2023-03-26T20:11:57.341Z,4.07
2023-03-26T20:14:07.793Z,3.85
2023-03-26T20:16:19.255Z,4.15
2023-03-26T20:18:21.843Z,4.63
2023-03-26T20:20:26.343Z,4.32
2023-03-26T20:22:29.598Z,4.60
2023-03-26T20:24:33.206Z,4.20
2023-03-26T20:26:35.876Z,4.60
2023-03-26T20:28:47.395Z,4.22
2023-03-26T20:30:51.953Z,3.85
2023-03-26T20:33:11.842Z,3.63
2023-03-26T20:35:20.338Z,4.43
2023-03-26T20:37:39.244Z,3.92
2023-03-26T20:39:43.630Z,4.03
2023-03-26T20:41:49.283Z,4.22
2023-03-26T20:43:52.489Z,3.83
2023-03-26T20:45:55.898Z,4.35
2023-03-26T20:47:59.644Z,4.38
2023-03-26T20:50:02.497Z,4.68
2023-03-26T20:52:06.781Z,4.10
2023-03-26T20:54:16.573Z,4.75
2023-03-26T20:56:20.658Z,4.68
2023-03-26T20:58:31.417Z,4.03
2023-03-26T21:00:34.998Z,4.60
2023-03-26T21:02:37.776Z,4.63
2023-03-26T21:04:40.524Z,4.43
2023-03-26T21:06:43.829Z,4.88
2023-03-26T21:08:46.785Z,3.72
2023-03-26T21:10:49.940Z,4.25
2023-03-26T21:13:06.043Z,3.97
2023-03-26T21:15:22.492Z,3.83
2023-03-26T21:17:27.335Z,4.15
2023-03-26T21:19:30.287Z,4.07
2023-03-26T21:21:42.003Z,3.85
2023-03-26T21:23:58.055Z,4.03
2023-03-26T21:26:18.164Z,3.55
2023-03-26T21:28:32.206Z,3.35
2023-03-26T21:30:42.835Z,3.20
2023-03-26T21:32:46.607Z,3.50
2023-03-26T21:34:58.511Z,4.68
2023-03-26T21:37:02.013Z,3.50
2023-03-26T21:39:06.663Z,3.72
2023-03-26T21:41:24.655Z,3.78
2023-03-26T21:43:27.479Z,3.92
2023-03-26T21:45:30.481Z,3.35
2023-03-26T21:47:33.529Z,4.32
2023-03-26T21:49:37.374Z,3.40
2023-03-26T21:51:41.195Z,3.78
2023-03-26T21:53:44.117Z,3.75
2023-03-26T21:55:49.582Z,3.17
2023-03-26T21:58:12.811Z,2.97
2023-03-26T22:00:25.807Z,3.45
2023-03-26T22:03:00.591Z,3.45
2023-03-26T22:05:19.581Z,3.58
2023-03-26T22:07:42.971Z,3.50
2023-03-26T22:09:45.899Z,3.85
2023-03-26T22:11:48.489Z,3.42
2023-03-26T22:13:51.211Z,3.88
2023-03-26T22:15:54.227Z,3.40
2023-03-26T22:18:04.896Z,3.05
2023-03-26T22:20:10.441Z,4.72
2023-03-26T22:22:13.142Z,3.75
2023-03-26T22:24:15.739Z,4.05
2023-03-26T22:26:23.368Z,3.83
2023-03-26T22:28:27.235Z,4.70
2023-03-26T22:30:29.827Z,3.65
2023-03-26T22:32:34.494Z,4.97
2023-03-26T22:34:38.335Z,4.05
2023-03-26T22:36:41.009Z,4.10
2023-03-26T22:38:43.641Z,4.95
2023-03-26T22:40:54.228Z,4.70
2023-03-26T22:42:57.124Z,4.85
2023-03-26T22:44:59.770Z,4.25
2023-03-26T22:47:02.400Z,6.03
2023-03-26T22:49:05.032Z,5.68
2023-03-26T22:51:09.376Z,5.47
2023-03-26T22:53:12.158Z,6.32
2023-03-26T22:55:15.787Z,7.20
2023-03-26T22:57:32.191Z,6.70
2023-03-26T22:59:34.872Z,7.00
2023-03-26T23:01:37.798Z,6.85
2023-03-26T23:03:41.008Z,6.50
2023-03-26T23:05:43.623Z,6.13
2023-03-26T23:07:46.393Z,6.32
2023-03-26T23:09:49.080Z,5.97
2023-03-26T23:11:52.043Z,6.03
2023-03-26T23:13:54.655Z,6.97
2023-03-26T23:15:57.342Z,6.95
2023-03-26T23:18:00.107Z,6.90
2023-03-26T23:20:13.731Z,6.88
2023-03-26T23:22:16.962Z,6.28
2023-03-26T23:24:19.950Z,6.28
2023-03-26T23:26:24.295Z,5.95
2023-03-26T23:28:30.392Z,7.20
2023-03-26T23:30:33.020Z,7.10
2023-03-26T23:32:38.075Z,7.63
2023-03-26T23:34:52.121Z,6.45
2023-03-26T23:36:55.414Z,6.50
2023-03-26T23:38:59.139Z,7.15
2023-03-26T23:41:02.550Z,6.97
2023-03-26T23:43:05.828Z,6.97
2023-03-26T23:45:08.835Z,6.55
2023-03-26T23:47:11.486Z,7.82
2023-03-26T23:49:15.110Z,6.68
2023-03-26T23:51:20.307Z,6.18
2023-03-26T23:53:25.046Z,7.07
2023-03-26T23:55:27.892Z,7.18
2023-03-26T23:57:30.764Z,6.97
2023-03-26T23:59:35.328Z,7.07
